sensor_id;sensor_type;location;lat;lon;timestamp;P1;durP1;ratioP1;P2;durP2;ratioP2
22030;SDS011;11179;52.106;21.024;2024-02-21T00:00:28;31.63;;;6.40;;
22030;SDS011;11179;52.106;21.024;2024-02-21T00:02:53;27.70;;;6.20;;
22030;SDS011;11179;52.106;21.024;2024-02-21T00:05:19;17.17;;;4.90;;
22030;SDS011;11179;52.106;21.024;2024-02-21T00:07:44;24.20;;;5.63;;
22030;SDS011;11179;52.106;21.024;2024-02-21T00:10:09;19.13;;;5.47;;
22030;SDS011;11179;52.106;21.024;2024-02-21T00:12:35;14.13;;;5.37;;
22030;SDS011;11179;52.106;21.024;2024-02-21T00:15:00;15.80;;;4.90;;
22030;SDS011;11179;52.106;21.024;2024-02-21T00:17:25;18.13;;;5.63;;
22030;SDS011;11179;52.106;21.024;2024-02-21T00:19:51;18.93;;;5.07;;
22030;SDS011;11179;52.106;21.024;2024-02-21T00:22:16;19.10;;;5.87;;
22030;SDS011;11179;52.106;21.024;2024-02-21T00:24:42;16.83;;;4.80;;
22030;SDS011;11179;52.106;21.024;2024-02-21T00:27:07;15.40;;;5.27;;
22030;SDS011;11179;52.106;21.024;2024-02-21T00:29:32;15.47;;;5.00;;
22030;SDS011;11179;52.106;21.024;2024-02-21T00:31:59;28.30;;;6.60;;
22030;SDS011;11179;52.106;21.024;2024-02-21T00:34:24;23.13;;;5.00;;
22030;SDS011;11179;52.106;21.024;2024-02-21T00:36:50;17.33;;;5.17;;
22030;SDS011;11179;52.106;21.024;2024-02-21T00:39:15;15.90;;;5.93;;
22030;SDS011;11179;52.106;21.024;2024-02-21T00:41:40;16.60;;;5.40;;
22030;SDS011;11179;52.106;21.024;2024-02-21T00:44:06;24.07;;;6.10;;
22030;SDS011;11179;52.106;21.024;2024-02-21T00:46:31;14.27;;;6.67;;
22030;SDS011;11179;52.106;21.024;2024-02-21T00:48:56;20.03;;;5.83;;
22030;SDS011;11179;52.106;21.024;2024-02-21T00:51:22;23.50;;;7.03;;
22030;SDS011;11179;52.106;21.024;2024-02-21T00:53:47;21.10;;;5.60;;
22030;SDS011;11179;52.106;21.024;2024-02-21T00:56:12;15.07;;;6.20;;
22030;SDS011;11179;52.106;21.024;2024-02-21T00:58:38;16.00;;;4.93;;
22030;SDS011;11179;52.106;21.024;2024-02-21T01:01:03;15.97;;;5.53;;
22030;SDS011;11179;52.106;21.024;2024-02-21T01:03:28;20.53;;;6.20;;
22030;SDS011;11179;52.106;21.024;2024-02-21T01:05:54;21.63;;;6.00;;
22030;SDS011;11179;52.106;21.024;2024-02-21T01:08:19;21.00;;;5.70;;
22030;SDS011;11179;52.106;21.024;2024-02-21T01:10:44;20.50;;;5.87;;
22030;SDS011;11179;52.106;21.024;2024-02-21T01:13:10;23.33;;;6.27;;
22030;SDS011;11179;52.106;21.024;2024-02-21T01:15:35;23.03;;;6.00;;
22030;SDS011;11179;52.106;21.024;2024-02-21T01:18:01;17.67;;;5.50;;
22030;SDS011;11179;52.106;21.024;2024-02-21T01:20:26;21.03;;;5.93;;
22030;SDS011;11179;52.106;21.024;2024-02-21T01:22:52;22.43;;;6.50;;
22030;SDS011;11179;52.106;21.024;2024-02-21T01:25:17;18.63;;;5.80;;
22030;SDS011;11179;52.106;21.024;2024-02-21T01:27:42;18.93;;;4.53;;
22030;SDS011;11179;52.106;21.024;2024-02-21T01:30:08;26.57;;;5.27;;
22030;SDS011;11179;52.106;21.024;2024-02-21T01:32:35;17.07;;;5.10;;
22030;SDS011;11179;52.106;21.024;2024-02-21T01:35:01;28.57;;;5.77;;
22030;SDS011;11179;52.106;21.024;2024-02-21T01:37:26;17.07;;;5.33;;
22030;SDS011;11179;52.106;21.024;2024-02-21T01:39:52;22.27;;;5.03;;
22030;SDS011;11179;52.106;21.024;2024-02-21T01:42:17;18.50;;;6.40;;
22030;SDS011;11179;52.106;21.024;2024-02-21T01:44:43;21.63;;;6.43;;
22030;SDS011;11179;52.106;21.024;2024-02-21T01:47:08;13.90;;;4.97;;
22030;SDS011;11179;52.106;21.024;2024-02-21T01:49:35;18.73;;;6.47;;
22030;SDS011;11179;52.106;21.024;2024-02-21T01:52:01;12.80;;;5.30;;
22030;SDS011;11179;52.106;21.024;2024-02-21T01:54:28;16.17;;;5.50;;
22030;SDS011;11179;52.106;21.024;2024-02-21T01:56:54;18.97;;;5.60;;
22030;SDS011;11179;52.106;21.024;2024-02-21T01:59:19;22.00;;;5.37;;
22030;SDS011;11179;52.106;21.024;2024-02-21T02:01:46;22.20;;;5.77;;
22030;SDS011;11179;52.106;21.024;2024-02-21T02:04:12;22.13;;;6.30;;
22030;SDS011;11179;52.106;21.024;2024-02-21T02:06:39;19.37;;;5.20;;
22030;SDS011;11179;52.106;21.024;2024-02-21T02:09:04;24.83;;;6.20;;
22030;SDS011;11179;52.106;21.024;2024-02-21T02:11:31;18.30;;;6.43;;
22030;SDS011;11179;52.106;21.024;2024-02-21T02:13:57;22.30;;;5.77;;
22030;SDS011;11179;52.106;21.024;2024-02-21T02:16:22;19.50;;;5.60;;
22030;SDS011;11179;52.106;21.024;2024-02-21T02:18:47;19.43;;;6.53;;
22030;SDS011;11179;52.106;21.024;2024-02-21T02:22:14;25.40;;;6.10;;
22030;SDS011;11179;52.106;21.024;2024-02-21T02:24:30;20.83;;;6.80;;
22030;SDS011;11179;52.106;21.024;2024-02-21T02:26:55;15.87;;;5.93;;
22030;SDS011;11179;52.106;21.024;2024-02-21T02:29:21;17.73;;;6.73;;
22030;SDS011;11179;52.106;21.024;2024-02-21T02:31:47;20.83;;;7.77;;
22030;SDS011;11179;52.106;21.024;2024-02-21T02:34:12;29.63;;;8.73;;
22030;SDS011;11179;52.106;21.024;2024-02-21T02:36:37;20.20;;;5.87;;
22030;SDS011;11179;52.106;21.024;2024-02-21T02:39:03;30.10;;;5.90;;
22030;SDS011;11179;52.106;21.024;2024-02-21T02:41:28;16.33;;;6.13;;
22030;SDS011;11179;52.106;21.024;2024-02-21T02:43:53;28.47;;;7.27;;
22030;SDS011;11179;52.106;21.024;2024-02-21T02:46:19;22.30;;;6.57;;
22030;SDS011;11179;52.106;21.024;2024-02-21T02:48:44;17.77;;;6.60;;
22030;SDS011;11179;52.106;21.024;2024-02-21T02:51:10;19.53;;;7.67;;
22030;SDS011;11179;52.106;21.024;2024-02-21T02:53:35;32.90;;;9.00;;
22030;SDS011;11179;52.106;21.024;2024-02-21T02:56:01;19.70;;;7.03;;
22030;SDS011;11179;52.106;21.024;2024-02-21T02:58:26;18.67;;;8.00;;
22030;SDS011;11179;52.106;21.024;2024-02-21T03:00:51;19.93;;;7.97;;
22030;SDS011;11179;52.106;21.024;2024-02-21T03:03:17;21.87;;;6.90;;
22030;SDS011;11179;52.106;21.024;2024-02-21T03:05:42;20.63;;;7.70;;
22030;SDS011;11179;52.106;21.024;2024-02-21T03:08:07;18.20;;;7.77;;
22030;SDS011;11179;52.106;21.024;2024-02-21T03:10:33;21.20;;;6.70;;
22030;SDS011;11179;52.106;21.024;2024-02-21T03:12:58;17.70;;;6.93;;
22030;SDS011;11179;52.106;21.024;2024-02-21T03:15:24;19.43;;;7.23;;
22030;SDS011;11179;52.106;21.024;2024-02-21T03:17:49;21.30;;;7.17;;
22030;SDS011;11179;52.106;21.024;2024-02-21T03:20:15;17.63;;;7.10;;
22030;SDS011;11179;52.106;21.024;2024-02-21T03:22:40;18.90;;;7.80;;
22030;SDS011;11179;52.106;21.024;2024-02-21T03:25:06;20.33;;;7.40;;
22030;SDS011;11179;52.106;21.024;2024-02-21T03:27:32;22.00;;;7.07;;
22030;SDS011;11179;52.106;21.024;2024-02-21T03:29:58;21.77;;;7.67;;
22030;SDS011;11179;52.106;21.024;2024-02-21T03:32:23;21.87;;;8.80;;
22030;SDS011;11179;52.106;21.024;2024-02-21T03:34:49;23.30;;;8.30;;
22030;SDS011;11179;52.106;21.024;2024-02-21T03:37:14;16.13;;;6.83;;
22030;SDS011;11179;52.106;21.024;2024-02-21T03:39:40;25.30;;;7.47;;
22030;SDS011;11179;52.106;21.024;2024-02-21T03:42:06;20.73;;;8.00;;
22030;SDS011;11179;52.106;21.024;2024-02-21T03:44:31;20.77;;;7.30;;
22030;SDS011;11179;52.106;21.024;2024-02-21T03:46:57;24.03;;;7.10;;
22030;SDS011;11179;52.106;21.024;2024-02-21T03:49:23;18.60;;;7.70;;
22030;SDS011;11179;52.106;21.024;2024-02-21T03:51:49;19.80;;;7.53;;
22030;SDS011;11179;52.106;21.024;2024-02-21T03:54:14;17.50;;;8.40;;
22030;SDS011;11179;52.106;21.024;2024-02-21T03:56:40;19.70;;;7.00;;
22030;SDS011;11179;52.106;21.024;2024-02-21T03:59:08;26.73;;;8.83;;
22030;SDS011;11179;52.106;21.024;2024-02-21T04:01:34;26.93;;;7.60;;
22030;SDS011;11179;52.106;21.024;2024-02-21T04:04:00;21.67;;;7.90;;
22030;SDS011;11179;52.106;21.024;2024-02-21T04:06:25;28.00;;;7.90;;
22030;SDS011;11179;52.106;21.024;2024-02-21T04:08:51;18.00;;;7.47;;
22030;SDS011;11179;52.106;21.024;2024-02-21T04:11:16;19.67;;;7.43;;
22030;SDS011;11179;52.106;21.024;2024-02-21T04:13:43;19.10;;;8.20;;
22030;SDS011;11179;52.106;21.024;2024-02-21T04:16:09;15.27;;;6.77;;
22030;SDS011;11179;52.106;21.024;2024-02-21T04:18:35;21.67;;;7.30;;
22030;SDS011;11179;52.106;21.024;2024-02-21T04:21:00;21.43;;;8.23;;
22030;SDS011;11179;52.106;21.024;2024-02-21T04:23:25;21.50;;;7.83;;
22030;SDS011;11179;52.106;21.024;2024-02-21T04:25:50;18.47;;;8.23;;
22030;SDS011;11179;52.106;21.024;2024-02-21T04:28:16;16.97;;;7.43;;
22030;SDS011;11179;52.106;21.024;2024-02-21T04:30:41;22.23;;;6.80;;
22030;SDS011;11179;52.106;21.024;2024-02-21T04:33:06;17.47;;;6.90;;
22030;SDS011;11179;52.106;21.024;2024-02-21T04:35:32;25.50;;;7.47;;
22030;SDS011;11179;52.106;21.024;2024-02-21T04:37:57;17.13;;;7.40;;
22030;SDS011;11179;52.106;21.024;2024-02-21T04:40:22;22.87;;;6.97;;
22030;SDS011;11179;52.106;21.024;2024-02-21T04:42:48;21.67;;;7.50;;
22030;SDS011;11179;52.106;21.024;2024-02-21T04:45:13;18.63;;;7.83;;
22030;SDS011;11179;52.106;21.024;2024-02-21T04:47:39;25.20;;;7.73;;
22030;SDS011;11179;52.106;21.024;2024-02-21T04:50:04;20.87;;;7.80;;
22030;SDS011;11179;52.106;21.024;2024-02-21T04:52:30;25.93;;;7.10;;
22030;SDS011;11179;52.106;21.024;2024-02-21T04:54:55;25.67;;;7.70;;
22030;SDS011;11179;52.106;21.024;2024-02-21T04:57:21;25.97;;;7.93;;
22030;SDS011;11179;52.106;21.024;2024-02-21T04:59:46;18.67;;;6.63;;
22030;SDS011;11179;52.106;21.024;2024-02-21T05:02:13;16.00;;;6.60;;
22030;SDS011;11179;52.106;21.024;2024-02-21T05:04:38;17.67;;;7.03;;
22030;SDS011;11179;52.106;21.024;2024-02-21T05:07:05;22.80;;;7.93;;
22030;SDS011;11179;52.106;21.024;2024-02-21T05:09:30;15.93;;;6.93;;
22030;SDS011;11179;52.106;21.024;2024-02-21T05:11:56;24.33;;;8.03;;
22030;SDS011;11179;52.106;21.024;2024-02-21T05:14:23;23.90;;;8.50;;
22030;SDS011;11179;52.106;21.024;2024-02-21T05:16:49;23.60;;;7.17;;
22030;SDS011;11179;52.106;21.024;2024-02-21T05:19:14;19.60;;;6.83;;
22030;SDS011;11179;52.106;21.024;2024-02-21T05:21:40;20.57;;;6.90;;
22030;SDS011;11179;52.106;21.024;2024-02-21T05:24:05;15.90;;;7.43;;
22030;SDS011;11179;52.106;21.024;2024-02-21T05:26:30;21.67;;;7.73;;
22030;SDS011;11179;52.106;21.024;2024-02-21T05:28:56;23.27;;;7.83;;
22030;SDS011;11179;52.106;21.024;2024-02-21T05:31:21;28.20;;;7.47;;
22030;SDS011;11179;52.106;21.024;2024-02-21T05:33:46;23.07;;;8.43;;
22030;SDS011;11179;52.106;21.024;2024-02-21T05:36:12;29.60;;;7.60;;
22030;SDS011;11179;52.106;21.024;2024-02-21T05:38:39;17.43;;;7.73;;
22030;SDS011;11179;52.106;21.024;2024-02-21T05:41:04;21.23;;;8.63;;
22030;SDS011;11179;52.106;21.024;2024-02-21T05:43:30;19.60;;;7.80;;
22030;SDS011;11179;52.106;21.024;2024-02-21T05:45:55;20.50;;;8.53;;
22030;SDS011;11179;52.106;21.024;2024-02-21T05:48:24;21.00;;;9.20;;
22030;SDS011;11179;52.106;21.024;2024-02-21T05:50:50;23.80;;;9.60;;
22030;SDS011;11179;52.106;21.024;2024-02-21T05:53:16;26.63;;;9.03;;
22030;SDS011;11179;52.106;21.024;2024-02-21T05:55:41;26.27;;;8.90;;
22030;SDS011;11179;52.106;21.024;2024-02-21T05:58:07;29.70;;;9.50;;
22030;SDS011;11179;52.106;21.024;2024-02-21T06:00:35;22.90;;;9.57;;
22030;SDS011;11179;52.106;21.024;2024-02-21T06:03:00;23.40;;;8.90;;
22030;SDS011;11179;52.106;21.024;2024-02-21T06:05:27;23.10;;;9.10;;
22030;SDS011;11179;52.106;21.024;2024-02-21T06:07:52;32.57;;;9.87;;
22030;SDS011;11179;52.106;21.024;2024-02-21T06:10:17;25.07;;;10.40;;
22030;SDS011;11179;52.106;21.024;2024-02-21T06:12:43;26.03;;;10.10;;
22030;SDS011;11179;52.106;21.024;2024-02-21T06:15:08;22.37;;;10.20;;
22030;SDS011;11179;52.106;21.024;2024-02-21T06:17:34;26.20;;;11.87;;
22030;SDS011;11179;52.106;21.024;2024-02-21T06:19:59;25.57;;;11.40;;
22030;SDS011;11179;52.106;21.024;2024-02-21T06:22:24;26.13;;;11.23;;
22030;SDS011;11179;52.106;21.024;2024-02-21T06:24:50;35.90;;;11.23;;
22030;SDS011;11179;52.106;21.024;2024-02-21T06:27:15;32.17;;;11.47;;
22030;SDS011;11179;52.106;21.024;2024-02-21T06:29:41;34.50;;;12.43;;
22030;SDS011;11179;52.106;21.024;2024-02-21T06:32:07;42.77;;;14.07;;
22030;SDS011;11179;52.106;21.024;2024-02-21T06:34:32;44.10;;;12.60;;
22030;SDS011;11179;52.106;21.024;2024-02-21T06:36:57;33.40;;;12.97;;
22030;SDS011;11179;52.106;21.024;2024-02-21T06:39:23;37.00;;;13.43;;
22030;SDS011;11179;52.106;21.024;2024-02-21T06:41:48;43.60;;;13.30;;
22030;SDS011;11179;52.106;21.024;2024-02-21T06:44:15;47.00;;;12.93;;
22030;SDS011;11179;52.106;21.024;2024-02-21T06:46:41;40.20;;;14.23;;
22030;SDS011;11179;52.106;21.024;2024-02-21T06:49:06;30.47;;;12.50;;
22030;SDS011;11179;52.106;21.024;2024-02-21T06:51:32;32.63;;;13.37;;
22030;SDS011;11179;52.106;21.024;2024-02-21T06:53:58;42.80;;;13.90;;
22030;SDS011;11179;52.106;21.024;2024-02-21T06:56:23;49.77;;;14.30;;
22030;SDS011;11179;52.106;21.024;2024-02-21T06:58:53;40.80;;;13.73;;
22030;SDS011;11179;52.106;21.024;2024-02-21T07:01:22;34.00;;;12.77;;
22030;SDS011;11179;52.106;21.024;2024-02-21T07:03:48;30.63;;;12.73;;
22030;SDS011;11179;52.106;21.024;2024-02-21T07:06:14;28.07;;;12.80;;
22030;SDS011;11179;52.106;21.024;2024-02-21T07:08:39;32.20;;;13.90;;
22030;SDS011;11179;52.106;21.024;2024-02-21T07:11:05;31.43;;;12.57;;
22030;SDS011;11179;52.106;21.024;2024-02-21T07:13:32;39.63;;;14.77;;
22030;SDS011;11179;52.106;21.024;2024-02-21T07:15:57;31.10;;;12.70;;
22030;SDS011;11179;52.106;21.024;2024-02-21T07:18:23;46.27;;;14.47;;
22030;SDS011;11179;52.106;21.024;2024-02-21T07:20:50;44.50;;;14.47;;
22030;SDS011;11179;52.106;21.024;2024-02-21T07:23:16;42.63;;;15.03;;
22030;SDS011;11179;52.106;21.024;2024-02-21T07:25:41;36.67;;;13.90;;
22030;SDS011;11179;52.106;21.024;2024-02-21T07:28:06;44.87;;;15.63;;
22030;SDS011;11179;52.106;21.024;2024-02-21T07:30:32;41.30;;;15.30;;
22030;SDS011;11179;52.106;21.024;2024-02-21T07:32:57;43.00;;;15.40;;
22030;SDS011;11179;52.106;21.024;2024-02-21T07:35:22;32.47;;;14.13;;
22030;SDS011;11179;52.106;21.024;2024-02-21T07:37:47;46.53;;;14.03;;
22030;SDS011;11179;52.106;21.024;2024-02-21T07:40:13;35.40;;;16.87;;
22030;SDS011;11179;52.106;21.024;2024-02-21T07:42:40;39.70;;;15.37;;
22030;SDS011;11179;52.106;21.024;2024-02-21T07:45:06;48.43;;;14.67;;
22030;SDS011;11179;52.106;21.024;2024-02-21T07:47:32;48.60;;;16.23;;
22030;SDS011;11179;52.106;21.024;2024-02-21T07:49:57;44.90;;;15.20;;
22030;SDS011;11179;52.106;21.024;2024-02-21T07:52:23;43.83;;;15.40;;
22030;SDS011;11179;52.106;21.024;2024-02-21T07:54:49;36.43;;;14.17;;
22030;SDS011;11179;52.106;21.024;2024-02-21T07:57:15;39.20;;;14.17;;
22030;SDS011;11179;52.106;21.024;2024-02-21T07:59:40;36.60;;;13.77;;
22030;SDS011;11179;52.106;21.024;2024-02-21T08:02:05;58.07;;;16.40;;
22030;SDS011;11179;52.106;21.024;2024-02-21T08:04:32;36.53;;;14.13;;
22030;SDS011;11179;52.106;21.024;2024-02-21T08:06:57;39.43;;;15.07;;
22030;SDS011;11179;52.106;21.024;2024-02-21T08:09:26;46.13;;;16.27;;
22030;SDS011;11179;52.106;21.024;2024-02-21T08:11:51;40.37;;;15.27;;
22030;SDS011;11179;52.106;21.024;2024-02-21T08:14:17;37.10;;;13.87;;
22030;SDS011;11179;52.106;21.024;2024-02-21T08:16:42;49.13;;;14.87;;
22030;SDS011;11179;52.106;21.024;2024-02-21T08:19:08;48.10;;;14.30;;
22030;SDS011;11179;52.106;21.024;2024-02-21T08:21:35;34.37;;;14.60;;
22030;SDS011;11179;52.106;21.024;2024-02-21T08:24:00;40.00;;;13.20;;
22030;SDS011;11179;52.106;21.024;2024-02-21T08:26:26;59.27;;;13.20;;
22030;SDS011;11179;52.106;21.024;2024-02-21T08:28:55;30.47;;;12.57;;
22030;SDS011;11179;52.106;21.024;2024-02-21T08:31:23;37.73;;;13.30;;
22030;SDS011;11179;52.106;21.024;2024-02-21T08:33:49;45.87;;;15.63;;
22030;SDS011;11179;52.106;21.024;2024-02-21T08:36:18;44.87;;;15.07;;
22030;SDS011;11179;52.106;21.024;2024-02-21T08:38:47;31.60;;;12.10;;
22030;SDS011;11179;52.106;21.024;2024-02-21T08:41:12;37.47;;;13.20;;
22030;SDS011;11179;52.106;21.024;2024-02-21T08:43:37;32.73;;;12.20;;
22030;SDS011;11179;52.106;21.024;2024-02-21T08:46:03;38.73;;;12.83;;
22030;SDS011;11179;52.106;21.024;2024-02-21T08:48:30;35.37;;;12.33;;
22030;SDS011;11179;52.106;21.024;2024-02-21T08:50:55;39.93;;;13.07;;
22030;SDS011;11179;52.106;21.024;2024-02-21T08:53:20;50.10;;;14.43;;
22030;SDS011;11179;52.106;21.024;2024-02-21T08:55:46;38.73;;;13.30;;
22030;SDS011;11179;52.106;21.024;2024-02-21T08:58:11;37.40;;;12.00;;
22030;SDS011;11179;52.106;21.024;2024-02-21T09:00:36;35.57;;;10.83;;
22030;SDS011;11179;52.106;21.024;2024-02-21T09:03:02;29.47;;;11.53;;
22030;SDS011;11179;52.106;21.024;2024-02-21T09:05:28;37.30;;;12.70;;
22030;SDS011;11179;52.106;21.024;2024-02-21T09:07:53;35.30;;;10.37;;
22030;SDS011;11179;52.106;21.024;2024-02-21T09:10:19;40.20;;;11.53;;
22030;SDS011;11179;52.106;21.024;2024-02-21T09:12:44;46.60;;;11.87;;
22030;SDS011;11179;52.106;21.024;2024-02-21T09:15:10;28.70;;;11.10;;
22030;SDS011;11179;52.106;21.024;2024-02-21T09:17:35;34.63;;;12.50;;
22030;SDS011;11179;52.106;21.024;2024-02-21T09:20:01;31.73;;;10.33;;
22030;SDS011;11179;52.106;21.024;2024-02-21T09:22:28;33.80;;;11.00;;
22030;SDS011;11179;52.106;21.024;2024-02-21T09:24:54;34.07;;;10.70;;
22030;SDS011;11179;52.106;21.024;2024-02-21T09:27:20;35.00;;;11.40;;
22030;SDS011;11179;52.106;21.024;2024-02-21T09:29:45;25.80;;;10.43;;
22030;SDS011;11179;52.106;21.024;2024-02-21T09:32:10;30.90;;;9.80;;
22030;SDS011;11179;52.106;21.024;2024-02-21T09:34:36;35.03;;;11.40;;
22030;SDS011;11179;52.106;21.024;2024-02-21T09:37:01;24.27;;;9.13;;
22030;SDS011;11179;52.106;21.024;2024-02-21T09:39:27;28.30;;;9.10;;
22030;SDS011;11179;52.106;21.024;2024-02-21T09:41:58;35.87;;;8.93;;
22030;SDS011;11179;52.106;21.024;2024-02-21T09:44:27;34.40;;;9.37;;
22030;SDS011;11179;52.106;21.024;2024-02-21T09:47:09;32.93;;;9.87;;
22030;SDS011;11179;52.106;21.024;2024-02-21T09:49:38;26.80;;;8.37;;
22030;SDS011;11179;52.106;21.024;2024-02-21T09:52:06;28.37;;;8.90;;
22030;SDS011;11179;52.106;21.024;2024-02-21T09:54:32;26.67;;;9.23;;
22030;SDS011;11179;52.106;21.024;2024-02-21T09:57:02;22.10;;;7.93;;
22030;SDS011;11179;52.106;21.024;2024-02-21T09:59:30;21.73;;;8.73;;
22030;SDS011;11179;52.106;21.024;2024-02-21T10:01:57;29.93;;;9.37;;
22030;SDS011;11179;52.106;21.024;2024-02-21T10:04:25;39.13;;;10.07;;
22030;SDS011;11179;52.106;21.024;2024-02-21T10:06:51;25.80;;;8.93;;
22030;SDS011;11179;52.106;21.024;2024-02-21T10:09:25;28.27;;;10.60;;
22030;SDS011;11179;52.106;21.024;2024-02-21T10:11:55;32.73;;;9.70;;
22030;SDS011;11179;52.106;21.024;2024-02-21T10:14:31;29.67;;;10.93;;
22030;SDS011;11179;52.106;21.024;2024-02-21T10:16:57;33.30;;;10.73;;
22030;SDS011;11179;52.106;21.024;2024-02-21T10:19:24;24.10;;;10.20;;
22030;SDS011;11179;52.106;21.024;2024-02-21T10:22:02;25.40;;;9.50;;
22030;SDS011;11179;52.106;21.024;2024-02-21T10:24:29;31.00;;;10.87;;
22030;SDS011;11179;52.106;21.024;2024-02-21T10:26:58;28.07;;;10.77;;
22030;SDS011;11179;52.106;21.024;2024-02-21T10:29:24;30.07;;;9.87;;
22030;SDS011;11179;52.106;21.024;2024-02-21T10:31:50;28.57;;;10.50;;
22030;SDS011;11179;52.106;21.024;2024-02-21T10:34:16;30.13;;;10.47;;
22030;SDS011;11179;52.106;21.024;2024-02-21T10:36:42;32.40;;;10.70;;
22030;SDS011;11179;52.106;21.024;2024-02-21T10:39:08;28.00;;;9.60;;
22030;SDS011;11179;52.106;21.024;2024-02-21T10:41:34;26.47;;;9.83;;
22030;SDS011;11179;52.106;21.024;2024-02-21T10:44:02;30.10;;;10.83;;
22030;SDS011;11179;52.106;21.024;2024-02-21T10:46:30;30.20;;;10.37;;
22030;SDS011;11179;52.106;21.024;2024-02-21T10:49:07;38.30;;;10.40;;
22030;SDS011;11179;52.106;21.024;2024-02-21T10:51:39;32.33;;;10.70;;
22030;SDS011;11179;52.106;21.024;2024-02-21T10:56:41;31.77;;;11.53;;
22030;SDS011;11179;52.106;21.024;2024-02-21T10:59:08;31.73;;;10.87;;
22030;SDS011;11179;52.106;21.024;2024-02-21T11:01:33;29.00;;;11.10;;
22030;SDS011;11179;52.106;21.024;2024-02-21T11:04:03;32.73;;;11.53;;
22030;SDS011;11179;52.106;21.024;2024-02-21T11:06:30;28.40;;;11.13;;
22030;SDS011;11179;52.106;21.024;2024-02-21T11:11:28;34.20;;;11.50;;
22030;SDS011;11179;52.106;21.024;2024-02-21T11:14:03;39.87;;;11.93;;
22030;SDS011;11179;52.106;21.024;2024-02-21T11:16:36;28.60;;;12.63;;
22030;SDS011;11179;52.106;21.024;2024-02-21T11:19:21;32.37;;;11.90;;
22030;SDS011;11179;52.106;21.024;2024-02-21T11:21:47;25.90;;;11.10;;
22030;SDS011;11179;52.106;21.024;2024-02-21T11:24:13;33.23;;;12.57;;
22030;SDS011;11179;52.106;21.024;2024-02-21T11:26:50;28.40;;;11.43;;
22030;SDS011;11179;52.106;21.024;2024-02-21T11:29:15;28.67;;;11.87;;
22030;SDS011;11179;52.106;21.024;2024-02-21T11:31:48;36.87;;;11.67;;
22030;SDS011;11179;52.106;21.024;2024-02-21T11:34:16;31.33;;;12.63;;
22030;SDS011;11179;52.106;21.024;2024-02-21T11:36:49;30.60;;;11.67;;
22030;SDS011;11179;52.106;21.024;2024-02-21T11:39:19;31.57;;;11.33;;
22030;SDS011;11179;52.106;21.024;2024-02-21T11:42:05;31.93;;;11.20;;
22030;SDS011;11179;52.106;21.024;2024-02-21T11:44:32;43.90;;;12.87;;
22030;SDS011;11179;52.106;21.024;2024-02-21T11:46:59;41.67;;;13.40;;
22030;SDS011;11179;52.106;21.024;2024-02-21T11:49:25;28.50;;;14.13;;
22030;SDS011;11179;52.106;21.024;2024-02-21T11:52:00;38.00;;;12.27;;
22030;SDS011;11179;52.106;21.024;2024-02-21T11:54:29;32.47;;;13.10;;
22030;SDS011;11179;52.106;21.024;2024-02-21T11:56:58;47.33;;;14.47;;
22030;SDS011;11179;52.106;21.024;2024-02-21T11:59:24;35.27;;;13.00;;
22030;SDS011;11179;52.106;21.024;2024-02-21T12:01:49;31.80;;;12.80;;
22030;SDS011;11179;52.106;21.024;2024-02-21T12:04:17;30.70;;;12.27;;
22030;SDS011;11179;52.106;21.024;2024-02-21T12:06:44;49.60;;;16.53;;
22030;SDS011;11179;52.106;21.024;2024-02-21T12:09:13;34.97;;;13.53;;
22030;SDS011;11179;52.106;21.024;2024-02-21T12:11:40;28.57;;;13.70;;
22030;SDS011;11179;52.106;21.024;2024-02-21T12:14:05;32.40;;;13.30;;
22030;SDS011;11179;52.106;21.024;2024-02-21T12:16:31;26.43;;;11.60;;
22030;SDS011;11179;52.106;21.024;2024-02-21T12:18:57;34.80;;;13.93;;
22030;SDS011;11179;52.106;21.024;2024-02-21T12:21:26;31.63;;;14.90;;
22030;SDS011;11179;52.106;21.024;2024-02-21T12:23:55;40.50;;;14.97;;
22030;SDS011;11179;52.106;21.024;2024-02-21T12:26:21;44.70;;;14.00;;
22030;SDS011;11179;52.106;21.024;2024-02-21T12:28:47;35.60;;;13.63;;
22030;SDS011;11179;52.106;21.024;2024-02-21T12:31:12;41.43;;;13.73;;
22030;SDS011;11179;52.106;21.024;2024-02-21T12:33:38;33.50;;;14.10;;
22030;SDS011;11179;52.106;21.024;2024-02-21T12:36:03;32.27;;;13.03;;
22030;SDS011;11179;52.106;21.024;2024-02-21T12:38:29;39.67;;;14.17;;
22030;SDS011;11179;52.106;21.024;2024-02-21T12:40:54;31.90;;;13.67;;
22030;SDS011;11179;52.106;21.024;2024-02-21T12:43:22;34.13;;;13.87;;
22030;SDS011;11179;52.106;21.024;2024-02-21T12:45:47;36.90;;;15.23;;
22030;SDS011;11179;52.106;21.024;2024-02-21T12:48:13;36.03;;;15.63;;
22030;SDS011;11179;52.106;21.024;2024-02-21T12:50:39;40.37;;;14.17;;
22030;SDS011;11179;52.106;21.024;2024-02-21T12:53:05;29.30;;;13.93;;
22030;SDS011;11179;52.106;21.024;2024-02-21T12:55:31;35.23;;;14.27;;
22030;SDS011;11179;52.106;21.024;2024-02-21T12:57:56;47.77;;;15.00;;
22030;SDS011;11179;52.106;21.024;2024-02-21T13:00:27;30.67;;;13.37;;
22030;SDS011;11179;52.106;21.024;2024-02-21T13:02:53;39.40;;;14.37;;
22030;SDS011;11179;52.106;21.024;2024-02-21T13:05:18;36.90;;;13.63;;
22030;SDS011;11179;52.106;21.024;2024-02-21T13:07:43;37.53;;;14.57;;
22030;SDS011;11179;52.106;21.024;2024-02-21T13:10:09;30.03;;;12.67;;
22030;SDS011;11179;52.106;21.024;2024-02-21T13:12:35;37.43;;;12.47;;
22030;SDS011;11179;52.106;21.024;2024-02-21T13:15:00;34.30;;;13.37;;
22030;SDS011;11179;52.106;21.024;2024-02-21T13:17:25;34.83;;;12.50;;
22030;SDS011;11179;52.106;21.024;2024-02-21T13:19:55;34.27;;;13.63;;
22030;SDS011;11179;52.106;21.024;2024-02-21T13:22:20;34.73;;;13.60;;
22030;SDS011;11179;52.106;21.024;2024-02-21T13:24:47;35.23;;;12.63;;
22030;SDS011;11179;52.106;21.024;2024-02-21T13:27:12;27.97;;;12.30;;
22030;SDS011;11179;52.106;21.024;2024-02-21T13:29:38;35.20;;;13.37;;
22030;SDS011;11179;52.106;21.024;2024-02-21T13:32:03;38.47;;;14.07;;
22030;SDS011;11179;52.106;21.024;2024-02-21T13:34:28;36.43;;;13.40;;
22030;SDS011;11179;52.106;21.024;2024-02-21T13:36:54;36.20;;;12.90;;
22030;SDS011;11179;52.106;21.024;2024-02-21T13:39:19;32.93;;;12.00;;
22030;SDS011;11179;52.106;21.024;2024-02-21T13:41:45;30.87;;;11.27;;
22030;SDS011;11179;52.106;21.024;2024-02-21T13:44:11;28.67;;;12.53;;
22030;SDS011;11179;52.106;21.024;2024-02-21T13:46:37;32.07;;;14.33;;
22030;SDS011;11179;52.106;21.024;2024-02-21T13:49:04;38.70;;;14.37;;
22030;SDS011;11179;52.106;21.024;2024-02-21T13:51:32;44.50;;;13.73;;
22030;SDS011;11179;52.106;21.024;2024-02-21T13:53:59;34.30;;;12.40;;
22030;SDS011;11179;52.106;21.024;2024-02-21T13:56:24;28.30;;;13.07;;
22030;SDS011;11179;52.106;21.024;2024-02-21T13:58:50;40.20;;;14.87;;
22030;SDS011;11179;52.106;21.024;2024-02-21T14:01:15;28.43;;;13.17;;
22030;SDS011;11179;52.106;21.024;2024-02-21T14:03:41;36.07;;;15.10;;
22030;SDS011;11179;52.106;21.024;2024-02-21T14:06:06;36.23;;;14.17;;
22030;SDS011;11179;52.106;21.024;2024-02-21T14:08:31;32.60;;;13.77;;
22030;SDS011;11179;52.106;21.024;2024-02-21T14:10:59;41.43;;;15.30;;
22030;SDS011;11179;52.106;21.024;2024-02-21T14:13:25;36.87;;;14.60;;
22030;SDS011;11179;52.106;21.024;2024-02-21T14:15:51;33.17;;;11.70;;